createdAt,value
2022-12-19T00:00:32.060Z,14.40
2022-12-19T00:03:01.921Z,16.57
2022-12-19T00:05:30.410Z,16.60
2022-12-19T00:07:59.126Z,16.93
2022-12-19T00:10:32.573Z,15.70
2022-12-19T00:13:00.850Z,16.70
2022-12-19T00:15:29.152Z,17.03
2022-12-19T00:17:57.443Z,15.40
2022-12-19T00:20:27.138Z,15.93
2022-12-19T00:22:55.428Z,15.90
2022-12-19T00:25:23.755Z,15.63
2022-12-19T00:27:53.420Z,15.00
2022-12-19T00:30:21.788Z,16.87
2022-12-19T00:32:50.562Z,16.50
2022-12-19T00:35:18.823Z,16.50
2022-12-19T00:37:49.694Z,17.07
2022-12-19T00:40:18.627Z,15.47
2022-12-19T00:42:53.258Z,15.60
2022-12-19T00:45:22.218Z,14.37
2022-12-19T00:47:50.544Z,15.17
2022-12-19T00:50:18.915Z,15.23
2022-12-19T00:52:48.665Z,15.30
2022-12-19T00:55:19.303Z,15.20
2022-12-19T00:57:48.498Z,16.30
2022-12-19T01:00:17.912Z,15.37
2022-12-19T01:02:46.849Z,15.23
2022-12-19T01:05:15.339Z,13.03
2022-12-19T01:07:43.634Z,16.77
2022-12-19T01:10:13.268Z,16.03
2022-12-19T01:12:46.072Z,15.47
2022-12-19T01:15:15.934Z,15.23
2022-12-19T01:17:44.958Z,15.43
2022-12-19T01:20:14.857Z,15.77
2022-12-19T01:22:43.897Z,17.10
2022-12-19T01:25:16.323Z,14.00
2022-12-19T01:27:44.628Z,18.20
2022-12-19T01:30:13.993Z,13.77
2022-12-19T01:32:43.576Z,17.30
2022-12-19T01:35:18.839Z,15.23
2022-12-19T01:37:50.579Z,15.30
2022-12-19T01:40:20.356Z,15.23
2022-12-19T01:42:49.188Z,14.63
2022-12-19T01:45:32.028Z,15.80
2022-12-19T01:48:17.827Z,13.33
2022-12-19T01:51:01.062Z,14.60
2022-12-19T01:53:35.507Z,15.00
2022-12-19T01:56:08.497Z,14.87
2022-12-19T01:58:37.953Z,14.27
2022-12-19T02:01:07.042Z,14.00
2022-12-19T02:03:37.225Z,14.23
2022-12-19T02:06:06.741Z,15.17
2022-12-19T02:08:35.487Z,14.10
2022-12-19T02:11:03.905Z,14.43
2022-12-19T02:13:35.037Z,14.57
2022-12-19T02:16:11.101Z,14.00
2022-12-19T02:18:45.263Z,14.83
2022-12-19T02:21:31.934Z,14.27
2022-12-19T02:24:37.660Z,15.07
2022-12-19T02:27:26.482Z,14.17
2022-12-19T02:30:12.469Z,14.50
2022-12-19T02:32:50.796Z,12.87
2022-12-19T02:35:27.347Z,14.57
2022-12-19T02:38:01.243Z,13.47
2022-12-19T02:40:35.871Z,13.80
2022-12-19T02:43:05.409Z,14.13
2022-12-19T02:45:36.815Z,13.63
2022-12-19T02:48:09.218Z,14.57
2022-12-19T02:50:40.478Z,14.60
2022-12-19T02:53:10.071Z,14.30
2022-12-19T02:55:45.491Z,13.60
2022-12-19T02:58:35.286Z,13.43
2022-12-19T03:01:12.394Z,13.20
2022-12-19T03:03:48.884Z,13.43
2022-12-19T03:06:25.078Z,14.53
2022-12-19T03:08:57.159Z,13.87
2022-12-19T03:11:27.133Z,13.97
2022-12-19T03:13:59.230Z,13.10
2022-12-19T03:16:28.394Z,13.97
2022-12-19T03:18:58.876Z,12.93
2022-12-19T03:21:30.541Z,13.67
2022-12-19T03:23:59.405Z,12.30
2022-12-19T03:26:29.882Z,12.43
2022-12-19T03:29:02.432Z,12.17
2022-12-19T03:31:33.052Z,13.07
2022-12-19T03:34:06.538Z,12.83
2022-12-19T03:36:42.640Z,13.40
2022-12-19T03:39:12.105Z,12.83
2022-12-19T03:41:58.423Z,13.93
2022-12-19T03:44:29.811Z,12.80
2022-12-19T03:47:01.325Z,14.07
2022-12-19T03:49:31.161Z,12.60
2022-12-19T03:52:02.482Z,13.70
2022-12-19T03:54:32.639Z,12.97
2022-12-19T03:57:06.256Z,12.60
2022-12-19T03:59:37.496Z,13.33
2022-12-19T04:02:06.061Z,12.83
2022-12-19T04:04:38.557Z,12.77
2022-12-19T04:07:10.614Z,12.90
2022-12-19T04:09:39.252Z,13.17
2022-12-19T04:12:10.095Z,11.97
2022-12-19T04:14:41.904Z,12.37
2022-12-19T04:17:16.639Z,11.73
2022-12-19T04:19:51.003Z,13.00
2022-12-19T04:22:24.116Z,13.10
2022-12-19T04:24:53.470Z,11.87
2022-12-19T04:27:22.209Z,12.40
2022-12-19T04:29:52.928Z,11.50
2022-12-19T04:32:21.464Z,12.50
2022-12-19T04:34:51.163Z,13.03
2022-12-19T04:37:20.311Z,12.63
2022-12-19T04:39:48.719Z,11.93
2022-12-19T04:42:16.895Z,11.30
2022-12-19T04:44:45.160Z,12.53
2022-12-19T04:47:13.440Z,13.20
2022-12-19T04:49:41.706Z,11.73
2022-12-19T04:52:11.462Z,11.50
2022-12-19T04:54:39.680Z,9.17
2022-12-19T04:57:07.887Z,11.90
2022-12-19T04:59:36.156Z,13.73
2022-12-19T05:02:04.587Z,11.57
2022-12-19T05:04:35.863Z,12.37
2022-12-19T05:07:04.317Z,10.87
2022-12-19T05:09:34.377Z,11.70
2022-12-19T05:12:06.003Z,11.30
2022-12-19T05:14:34.710Z,11.10
2022-12-19T05:17:02.991Z,13.07
2022-12-19T05:19:31.395Z,11.03
2022-12-19T05:21:59.994Z,14.10
2022-12-19T05:24:29.292Z,9.83
2022-12-19T05:26:58.884Z,10.50
2022-12-19T05:29:27.120Z,12.23
2022-12-19T05:31:55.420Z,11.97
2022-12-19T05:34:25.566Z,11.90
2022-12-19T05:36:54.790Z,12.07
2022-12-19T05:39:23.099Z,11.07
2022-12-19T05:41:51.419Z,11.93
2022-12-19T05:44:21.003Z,11.70
2022-12-19T05:46:49.479Z,10.27
2022-12-19T05:49:17.984Z,10.43
2022-12-19T05:51:49.220Z,10.97
2022-12-19T05:54:17.462Z,11.40
2022-12-19T05:56:46.054Z,10.67
2022-12-19T05:59:14.528Z,10.93
2022-12-19T06:01:44.341Z,10.67
2022-12-19T06:04:12.783Z,12.57
2022-12-19T06:06:41.508Z,12.47
2022-12-19T06:09:09.916Z,10.77
2022-12-19T06:11:38.147Z,11.50
2022-12-19T06:14:09.311Z,9.73
2022-12-19T06:16:38.064Z,10.90
2022-12-19T06:19:07.746Z,12.13
2022-12-19T06:21:39.747Z,10.67
2022-12-19T06:24:13.851Z,11.43
2022-12-19T06:26:42.496Z,10.97
2022-12-19T06:29:10.827Z,10.53
2022-12-19T06:31:39.160Z,12.03
2022-12-19T06:34:10.706Z,11.47
2022-12-19T06:36:39.244Z,11.77
2022-12-19T06:39:13.311Z,11.10
2022-12-19T06:41:59.268Z,11.73
2022-12-19T06:44:27.641Z,11.87
2022-12-19T06:46:55.913Z,11.13
2022-12-19T06:49:25.505Z,12.07
2022-12-19T06:51:53.723Z,11.60
2022-12-19T06:54:21.997Z,10.33
2022-12-19T06:56:50.325Z,11.63
2022-12-19T06:59:18.634Z,10.53
2022-12-19T07:01:54.595Z,12.47
2022-12-19T07:04:28.095Z,11.10
2022-12-19T07:06:56.478Z,11.00
2022-12-19T07:09:24.747Z,10.90
2022-12-19T07:11:53.006Z,12.17
2022-12-19T07:14:21.365Z,10.80
2022-12-19T07:16:49.997Z,11.50
2022-12-19T07:19:18.643Z,11.97
2022-12-19T07:21:48.491Z,11.63
2022-12-19T07:24:16.883Z,11.63
2022-12-19T07:26:45.849Z,11.07
2022-12-19T07:29:14.867Z,12.73
2022-12-19T07:31:43.150Z,12.07
2022-12-19T07:34:11.493Z,11.77
2022-12-19T07:36:40.210Z,11.87
2022-12-19T07:39:10.130Z,11.67
2022-12-19T07:41:38.753Z,12.00
2022-12-19T07:44:07.735Z,10.97
2022-12-19T07:46:36.058Z,11.97
2022-12-19T07:49:04.376Z,12.57
2022-12-19T07:51:33.103Z,12.90
2022-12-19T07:54:01.627Z,11.93
2022-12-19T07:56:34.931Z,15.30
2022-12-19T07:59:03.682Z,13.73
2022-12-19T08:01:32.353Z,12.67
2022-12-19T08:04:00.947Z,12.40
2022-12-19T08:06:29.391Z,12.20
2022-12-19T08:08:57.620Z,12.57
2022-12-19T08:11:27.949Z,12.20
2022-12-19T08:13:58.661Z,11.50
2022-12-19T08:16:27.899Z,13.10
2022-12-19T08:18:56.738Z,12.57
2022-12-19T08:21:25.195Z,11.30
2022-12-19T08:23:53.826Z,12.43
2022-12-19T08:26:25.488Z,11.33
2022-12-19T08:28:54.233Z,11.63
2022-12-19T08:31:26.173Z,11.77
2022-12-19T08:33:56.027Z,12.30
2022-12-19T08:36:24.996Z,12.00
2022-12-19T08:38:53.946Z,10.77
2022-12-19T08:41:23.296Z,12.40
2022-12-19T08:43:52.757Z,12.03
2022-12-19T08:46:21.870Z,11.77
2022-12-19T08:48:51.748Z,11.43
2022-12-19T08:51:20.023Z,11.43
2022-12-19T08:53:48.607Z,11.80
2022-12-19T08:56:18.856Z,12.33
2022-12-19T08:58:47.255Z,11.47
2022-12-19T09:01:19.363Z,11.90
2022-12-19T09:04:56.377Z,11.57
2022-12-19T09:06:37.998Z,11.87
2022-12-19T09:09:06.833Z,12.77
2022-12-19T09:11:35.567Z,12.03
2022-12-19T09:14:09.389Z,11.93
2022-12-19T09:16:37.633Z,10.43
2022-12-19T09:19:05.929Z,11.37
2022-12-19T09:21:34.188Z,12.23
2022-12-19T09:24:07.938Z,11.53
2022-12-19T09:26:38.535Z,12.67
2022-12-19T09:29:12.706Z,10.97
2022-12-19T09:31:51.208Z,11.40
2022-12-19T09:34:36.942Z,12.20
2022-12-19T09:37:07.564Z,12.73
2022-12-19T09:39:37.475Z,12.07
2022-12-19T09:42:26.438Z,12.90
2022-12-19T09:45:31.573Z,12.27
2022-12-19T09:48:01.932Z,11.30
2022-12-19T09:50:44.391Z,11.47
2022-12-19T09:53:19.410Z,11.63
2022-12-19T09:55:49.470Z,11.37
2022-12-19T09:58:27.245Z,12.37
2022-12-19T10:01:00.130Z,12.23
2022-12-19T10:03:33.560Z,11.77
2022-12-19T10:07:16.300Z,13.10
2022-12-19T10:10:56.420Z,11.43
2022-12-19T10:12:37.284Z,13.70
2022-12-19T10:15:06.673Z,11.83
2022-12-19T10:17:47.628Z,12.47
2022-12-19T10:20:21.148Z,12.70
2022-12-19T10:23:01.109Z,12.30
2022-12-19T10:25:44.168Z,13.97
2022-12-19T10:28:25.645Z,11.93
2022-12-19T10:31:12.535Z,12.03
2022-12-19T10:33:48.742Z,13.33
2022-12-19T10:36:17.062Z,12.57
2022-12-19T10:38:52.003Z,13.07
2022-12-19T10:41:23.585Z,13.83
2022-12-19T10:44:02.405Z,14.03
2022-12-19T10:46:38.996Z,12.60
2022-12-19T10:49:16.740Z,12.37
2022-12-19T10:51:54.767Z,13.60
2022-12-19T10:54:30.720Z,12.10
2022-12-19T10:57:19.257Z,13.23
2022-12-19T10:59:57.864Z,12.80
2022-12-19T11:02:36.308Z,14.47
2022-12-19T11:05:06.851Z,13.03
2022-12-19T11:07:35.300Z,13.33
2022-12-19T11:10:15.878Z,17.30
2022-12-19T11:18:32.900Z,14.20
2022-12-19T11:20:10.109Z,14.23
2022-12-19T11:29:25.219Z,14.27
2022-12-19T11:29:32.814Z,14.07
2022-12-19T11:30:06.371Z,13.57
2022-12-19T11:30:39.206Z,15.00
2022-12-19T11:33:17.856Z,14.63
2022-12-19T11:35:51.617Z,14.87
2022-12-19T11:38:27.499Z,14.63
2022-12-19T11:40:58.104Z,14.17
2022-12-19T11:43:46.849Z,13.57
2022-12-19T11:46:33.629Z,13.97
2022-12-19T11:49:07.218Z,15.60
2022-12-19T11:51:42.784Z,13.77
2022-12-19T11:54:14.936Z,14.30
2022-12-19T11:56:43.473Z,14.57
2022-12-19T11:59:19.189Z,14.20
2022-12-19T12:01:59.196Z,13.60
2022-12-19T12:04:48.700Z,14.27
2022-12-19T12:07:47.195Z,14.43
2022-12-19T12:15:26.898Z,14.40
2022-12-19T12:23:40.327Z,15.13
2022-12-19T12:28:47.907Z,13.73
2022-12-19T12:31:08.956Z,13.70
2022-12-19T12:31:30.604Z,13.30
2022-12-19T12:31:46.587Z,15.33
2022-12-19T12:31:48.511Z,15.80
2022-12-19T12:31:51.877Z,14.17
2022-12-19T12:35:31.529Z,13.47
2022-12-19T12:39:43.908Z,15.10
2022-12-19T12:42:20.635Z,14.37
2022-12-19T12:44:50.200Z,14.80
2022-12-19T12:47:20.986Z,15.17
2022-12-19T12:49:54.056Z,14.73
2022-12-19T12:52:35.602Z,15.57
2022-12-19T12:55:07.927Z,16.77
2022-12-19T12:57:38.301Z,15.37
2022-12-19T13:00:19.318Z,15.23
2022-12-19T13:02:51.951Z,14.87
2022-12-19T13:05:31.325Z,17.10
2022-12-19T13:08:00.360Z,15.77
2022-12-19T13:10:32.559Z,14.53
2022-12-19T13:13:02.569Z,16.70
2022-12-19T13:15:48.770Z,15.20
2022-12-19T13:18:32.605Z,14.83
2022-12-19T13:21:02.681Z,13.87
2022-12-19T13:23:50.160Z,14.90
2022-12-19T13:26:51.126Z,14.47
2022-12-19T13:29:34.342Z,15.47
2022-12-19T13:32:13.379Z,14.20
2022-12-19T13:34:52.735Z,15.00
2022-12-19T13:40:00.639Z,13.73
2022-12-19T13:40:33.154Z,14.80
2022-12-19T13:43:30.875Z,14.20
2022-12-19T13:46:00.932Z,15.20
2022-12-19T13:48:32.467Z,13.83
2022-12-19T13:51:05.415Z,14.70
2022-12-19T13:53:33.855Z,15.30
2022-12-19T13:56:04.014Z,13.67
2022-12-19T13:58:38.122Z,13.80
2022-12-19T14:01:20.067Z,13.60
2022-12-19T14:03:49.992Z,13.83
2022-12-19T14:06:22.031Z,14.43
2022-12-19T14:09:37.440Z,15.00
2022-12-19T14:13:38.401Z,13.87
2022-12-19T14:15:02.763Z,13.90
2022-12-19T14:17:39.184Z,13.50
2022-12-19T14:22:03.909Z,14.77
2022-12-19T14:23:09.153Z,12.37
2022-12-19T14:28:17.162Z,13.63
2022-12-19T14:28:37.158Z,13.83
2022-12-19T14:31:09.190Z,13.57
2022-12-19T14:33:58.482Z,13.37
2022-12-19T14:36:28.944Z,13.50
2022-12-19T14:39:23.669Z,14.23
2022-12-19T14:42:05.339Z,13.97
2022-12-19T14:51:42.649Z,13.43
2022-12-19T14:54:14.082Z,14.40
2022-12-19T14:54:28.083Z,13.73
2022-12-19T14:54:40.196Z,15.13
2022-12-19T14:56:33.145Z,14.53
2022-12-19T14:59:00.557Z,14.33
2022-12-19T15:01:31.052Z,16.47
2022-12-19T15:04:51.191Z,16.70
2022-12-19T15:07:08.388Z,14.93
2022-12-19T15:11:00.376Z,14.47
2022-12-19T15:14:04.035Z,17.07
2022-12-19T15:16:00.625Z,17.10
2022-12-19T15:18:37.654Z,17.37
2022-12-19T15:21:09.189Z,18.30
2022-12-19T15:23:37.589Z,16.93
2022-12-19T15:26:08.914Z,15.10
2022-12-19T15:28:42.334Z,14.50
2022-12-19T15:31:34.458Z,15.43
2022-12-19T15:36:59.469Z,15.87
2022-12-19T15:39:29.810Z,16.03
2022-12-19T15:42:00.376Z,15.40
2022-12-19T15:44:32.573Z,15.23
2022-12-19T15:47:00.991Z,14.80
2022-12-19T15:49:29.468Z,15.80
2022-12-19T15:51:59.612Z,14.97
2022-12-19T15:57:22.459Z,15.53
2022-12-19T15:59:50.939Z,15.60
2022-12-19T16:02:21.598Z,15.77
2022-12-19T16:04:52.315Z,15.67
2022-12-19T16:07:25.364Z,15.87
2022-12-19T16:09:54.864Z,16.10
2022-12-19T16:12:25.969Z,15.30
2022-12-19T16:14:58.119Z,14.27
2022-12-19T16:17:27.341Z,15.80
2022-12-19T16:19:55.666Z,16.60
2022-12-19T16:22:29.425Z,14.93
2022-12-19T16:24:58.307Z,14.13
2022-12-19T16:27:29.110Z,15.37
2022-12-19T16:29:59.359Z,16.70
2022-12-19T16:32:27.823Z,16.13
2022-12-19T16:34:56.078Z,17.03
2022-12-19T16:37:32.069Z,15.43
2022-12-19T16:40:02.016Z,15.70
2022-12-19T16:42:31.303Z,16.27
2022-12-19T16:44:59.783Z,16.57
2022-12-19T16:47:28.145Z,14.93
2022-12-19T16:49:57.336Z,17.07
2022-12-19T16:52:26.943Z,18.07
2022-12-19T16:54:55.220Z,17.97
2022-12-19T16:57:23.867Z,17.70
2022-12-19T16:59:52.240Z,18.27
2022-12-19T17:02:40.659Z,18.13
2022-12-19T17:05:16.275Z,18.00
2022-12-19T17:07:46.113Z,19.50
2022-12-19T17:10:14.652Z,19.73
2022-12-19T17:12:43.446Z,18.53
2022-12-19T17:15:21.163Z,17.73
2022-12-19T17:17:50.025Z,17.53
2022-12-19T17:20:20.141Z,20.67
2022-12-19T17:22:49.947Z,51.23
2022-12-19T17:25:21.685Z,48.43
2022-12-19T17:27:50.745Z,23.67
2022-12-19T17:30:19.426Z,22.50
2022-12-19T17:32:50.025Z,21.43
2022-12-19T17:35:27.288Z,24.30
2022-12-19T17:37:58.803Z,21.93
2022-12-19T17:40:29.431Z,22.93
2022-12-19T17:42:58.269Z,24.20
2022-12-19T17:45:27.908Z,24.17
2022-12-19T17:48:02.343Z,23.00
2022-12-19T17:50:33.518Z,23.00
2022-12-19T17:53:03.213Z,25.57
2022-12-19T17:55:32.097Z,22.53
2022-12-19T17:58:00.670Z,24.07
2022-12-19T18:00:30.902Z,23.93
2022-12-19T18:03:01.993Z,24.73
2022-12-19T18:05:33.363Z,22.53
2022-12-19T18:08:03.163Z,24.07
2022-12-19T18:10:33.456Z,24.47
2022-12-19T18:13:01.702Z,24.53
2022-12-19T18:15:29.982Z,24.90
2022-12-19T18:17:58.924Z,27.43
2022-12-19T18:20:31.988Z,23.90
2022-12-19T18:23:03.421Z,25.57
2022-12-19T18:25:35.160Z,27.50
2022-12-19T18:28:03.683Z,27.43
2022-12-19T18:30:32.080Z,25.77
2022-12-19T18:33:02.517Z,25.47
2022-12-19T18:35:33.501Z,23.50
2022-12-19T18:38:05.276Z,25.57
2022-12-19T18:40:33.735Z,24.57
2022-12-19T18:43:02.111Z,27.23
2022-12-19T18:45:36.206Z,26.93
2022-12-19T18:48:07.890Z,25.90
2022-12-19T18:50:36.242Z,25.80
2022-12-19T18:53:10.653Z,25.37
2022-12-19T18:55:38.939Z,26.70
2022-12-19T18:58:07.253Z,27.00
2022-12-19T19:00:36.610Z,30.13
2022-12-19T19:03:07.162Z,29.67
2022-12-19T19:05:37.098Z,30.20
2022-12-19T19:08:17.080Z,28.13
2022-12-19T19:10:50.181Z,29.13
2022-12-19T19:13:21.156Z,28.77
2022-12-19T19:15:51.030Z,29.70
2022-12-19T19:18:23.239Z,31.83
2022-12-19T19:20:58.831Z,26.87
2022-12-19T19:23:33.892Z,27.37
2022-12-19T19:26:02.171Z,29.27
2022-12-19T19:28:30.498Z,26.73
2022-12-19T19:31:00.991Z,28.40
2022-12-19T19:33:32.271Z,27.60
2022-12-19T19:36:10.919Z,29.43
2022-12-19T19:38:42.013Z,26.87
2022-12-19T19:41:10.261Z,30.60
2022-12-19T19:43:38.551Z,31.27
2022-12-19T19:46:07.134Z,32.10
2022-12-19T19:48:35.640Z,30.63
2022-12-19T19:51:04.185Z,29.50
2022-12-19T19:53:32.403Z,29.10
2022-12-19T19:56:02.666Z,30.87
2022-12-19T19:58:31.638Z,27.67
2022-12-19T20:00:59.986Z,30.10
2022-12-19T20:03:28.541Z,30.10
2022-12-19T20:06:00.829Z,28.30
2022-12-19T20:08:37.082Z,28.37
2022-12-19T20:11:10.646Z,29.53
2022-12-19T20:13:39.580Z,28.90
2022-12-19T20:16:09.911Z,27.63
2022-12-19T20:18:39.926Z,27.07
2022-12-19T20:21:12.653Z,27.70
2022-12-19T20:23:43.162Z,27.70
2022-12-19T20:26:13.491Z,27.20
2022-12-19T20:28:48.356Z,25.87
2022-12-19T20:31:17.793Z,25.97
2022-12-19T20:33:46.610Z,27.33
2022-12-19T20:36:15.385Z,27.17
2022-12-19T20:38:43.942Z,26.03
2022-12-19T20:41:13.780Z,25.20
2022-12-19T20:43:42.194Z,25.70
2022-12-19T20:46:12.632Z,25.60
2022-12-19T20:48:41.600Z,26.83
2022-12-19T20:51:09.976Z,25.07
2022-12-19T20:53:41.561Z,25.07
2022-12-19T20:56:14.183Z,24.67
2022-12-19T20:58:42.579Z,25.10
2022-12-19T21:01:12.750Z,27.20
2022-12-19T21:03:41.527Z,26.20
2022-12-19T21:06:11.012Z,25.13
2022-12-19T21:08:39.737Z,25.73
2022-12-19T21:11:09.169Z,26.20
2022-12-19T21:13:41.054Z,26.47
2022-12-19T21:16:12.576Z,25.07
2022-12-19T21:18:42.615Z,25.73
2022-12-19T21:21:14.949Z,27.43
2022-12-19T21:23:43.648Z,25.53
2022-12-19T21:26:12.321Z,26.10
2022-12-19T21:28:42.155Z,25.70
2022-12-19T21:31:16.181Z,26.03
2022-12-19T21:33:45.270Z,26.77
2022-12-19T21:36:16.634Z,27.57
2022-12-19T21:38:44.979Z,25.60
2022-12-19T21:41:18.642Z,26.73
2022-12-19T21:43:49.015Z,25.90
2022-12-19T21:46:18.253Z,27.17
2022-12-19T21:48:48.721Z,26.40
2022-12-19T21:51:18.537Z,25.87
2022-12-19T21:53:46.872Z,25.47
2022-12-19T21:56:23.335Z,25.43
2022-12-19T21:58:54.518Z,24.80
2022-12-19T22:01:23.220Z,24.37
2022-12-19T22:03:52.297Z,25.00
2022-12-19T22:06:28.315Z,23.80
2022-12-19T22:08:57.567Z,24.33
2022-12-19T22:11:26.090Z,24.13
2022-12-19T22:13:55.784Z,24.70
2022-12-19T22:16:24.152Z,24.57
2022-12-19T22:18:53.069Z,23.30
2022-12-19T22:21:22.269Z,23.27
2022-12-19T22:23:50.552Z,21.60
2022-12-19T22:26:21.073Z,23.17
2022-12-19T22:28:50.822Z,23.57
2022-12-19T22:31:22.353Z,22.57
2022-12-19T22:33:51.694Z,22.50
2022-12-19T22:36:27.328Z,22.07
2022-12-19T22:38:56.251Z,22.53
2022-12-19T22:41:24.631Z,21.60
2022-12-19T22:43:53.075Z,22.07
2022-12-19T22:46:26.220Z,20.97
2022-12-19T22:48:56.725Z,21.80
2022-12-19T22:51:25.210Z,21.20
2022-12-19T22:53:53.472Z,20.47
2022-12-19T22:56:24.045Z,19.87
2022-12-19T22:58:53.857Z,19.87
2022-12-19T23:01:25.030Z,20.17
2022-12-19T23:03:56.184Z,19.80
2022-12-19T23:06:26.259Z,18.20
2022-12-19T23:08:54.938Z,19.47
2022-12-19T23:11:25.039Z,18.67
2022-12-19T23:13:53.685Z,18.33
2022-12-19T23:16:23.435Z,18.20
2022-12-19T23:18:51.830Z,17.93
2022-12-19T23:21:21.825Z,18.33
2022-12-19T23:23:51.584Z,18.83
2022-12-19T23:26:21.958Z,17.83
2022-12-19T23:28:53.310Z,17.20
2022-12-19T23:31:23.270Z,17.90
2022-12-19T23:33:51.568Z,18.33
2022-12-19T23:36:38.082Z,16.60
2022-12-19T23:39:08.443Z,16.70
2022-12-19T23:41:36.727Z,17.23
2022-12-19T23:44:05.208Z,16.40
2022-12-19T23:46:34.842Z,16.83
2022-12-19T23:49:03.325Z,16.50
2022-12-19T23:51:31.891Z,16.93
2022-12-19T23:54:00.121Z,18.10
2022-12-19T23:56:30.638Z,17.67
2022-12-19T23:58:59.458Z,17.73
